createdAt,value
2018-09-20T00:01:53.890Z,10.43
2018-09-20T00:04:21.940Z,8.53
2018-09-20T00:06:50.129Z,8.10
2018-09-20T00:09:18.161Z,11.07
2018-09-20T00:16:30.768Z,11.93
2018-09-20T00:19:16.022Z,10.57
2018-09-20T00:21:53.824Z,11.77
2018-09-20T00:24:26.969Z,11.33
2018-09-20T00:26:55.097Z,13.00
2018-09-20T00:29:23.154Z,10.77
2018-09-20T00:31:51.163Z,12.43
2018-09-20T00:34:19.193Z,16.90
2018-09-20T00:36:47.222Z,11.83
2018-09-20T00:39:15.281Z,15.07
2018-09-20T00:41:43.334Z,12.23
2018-09-20T00:44:11.375Z,9.97
2018-09-20T00:46:39.389Z,10.83
2018-09-20T00:49:07.437Z,10.43
2018-09-20T00:51:35.452Z,11.70
2018-09-20T00:54:03.529Z,9.30
2018-09-20T00:56:31.581Z,16.53
2018-09-20T00:58:59.629Z,10.10
2018-09-20T01:01:27.646Z,13.10
2018-09-20T01:03:55.683Z,13.93
2018-09-20T01:06:23.753Z,9.93
2018-09-20T01:08:51.786Z,12.80
2018-09-20T01:11:19.813Z,11.53
2018-09-20T01:13:47.857Z,11.30
2018-09-20T01:16:15.901Z,11.33
2018-09-20T01:18:43.934Z,11.07
2018-09-20T01:21:11.990Z,11.50
2018-09-20T01:23:40.009Z,10.10
2018-09-20T01:26:08.058Z,15.83
2018-09-20T01:28:36.035Z,9.37
2018-09-20T01:31:04.118Z,12.33
2018-09-20T01:33:32.165Z,14.20
2018-09-20T01:36:00.202Z,12.33
2018-09-20T01:38:28.278Z,14.63
2018-09-20T01:40:56.328Z,13.37
2018-09-20T01:43:24.393Z,10.83
2018-09-20T01:45:53.236Z,12.23
2018-09-20T01:48:21.279Z,10.57
2018-09-20T01:50:49.274Z,11.63
2018-09-20T01:56:24.791Z,11.10
2018-09-20T01:58:53.172Z,17.17
2018-09-20T02:01:21.201Z,16.53
2018-09-20T02:03:49.245Z,9.50
2018-09-20T02:06:17.337Z,12.07
2018-09-20T02:08:45.372Z,9.33
2018-09-20T02:11:13.415Z,13.97
2018-09-20T02:13:41.481Z,14.43
2018-09-20T02:16:09.549Z,22.90
2018-09-20T02:18:37.573Z,13.67
2018-09-20T02:21:06.050Z,13.47
2018-09-20T02:23:34.086Z,11.70
2018-09-20T02:26:02.184Z,18.20
2018-09-20T02:28:30.365Z,12.03
2018-09-20T02:30:58.419Z,18.40
2018-09-20T02:33:26.459Z,13.03
2018-09-20T02:35:54.496Z,15.53
2018-09-20T02:38:22.553Z,10.63
2018-09-20T02:40:50.581Z,10.47
2018-09-20T02:43:18.625Z,9.23
2018-09-20T02:45:46.633Z,11.37
2018-09-20T02:48:14.653Z,11.90
2018-09-20T02:50:42.682Z,14.73
2018-09-20T02:53:10.749Z,15.23
2018-09-20T02:55:38.783Z,13.77
2018-09-20T02:58:06.838Z,12.67
2018-09-20T03:00:34.896Z,12.63
2018-09-20T03:03:02.916Z,15.93
2018-09-20T03:05:30.950Z,15.40
2018-09-20T03:07:59.034Z,13.27
2018-09-20T03:10:27.055Z,12.83
2018-09-20T03:12:55.084Z,17.57
2018-09-20T03:15:23.121Z,15.83
2018-09-20T03:17:51.149Z,17.83
2018-09-20T03:20:19.206Z,10.70
2018-09-20T03:22:47.499Z,11.37
2018-09-20T03:25:15.602Z,10.70
2018-09-20T03:27:43.711Z,12.17
2018-09-20T03:30:11.937Z,14.60
2018-09-20T03:32:39.883Z,13.27
2018-09-20T03:35:07.905Z,16.23
2018-09-20T03:37:35.954Z,16.20
2018-09-20T03:40:04.035Z,12.37
2018-09-20T03:42:32.153Z,16.73
2018-09-20T03:45:00.200Z,16.40
2018-09-20T03:47:28.247Z,13.70
2018-09-20T03:49:56.278Z,16.50
2018-09-20T03:52:24.339Z,14.13
2018-09-20T03:54:52.437Z,21.27
2018-09-20T03:57:20.471Z,15.50
2018-09-20T03:59:48.497Z,17.97
2018-09-20T04:02:16.555Z,14.30
2018-09-20T04:04:44.591Z,14.17
2018-09-20T04:07:12.663Z,13.47
2018-09-20T04:09:40.721Z,13.30
2018-09-20T04:12:08.723Z,16.20
2018-09-20T04:14:36.757Z,11.10
2018-09-20T04:17:05.039Z,15.80
2018-09-20T04:19:33.130Z,18.05
2018-09-20T04:22:01.134Z,23.10
2018-09-20T04:24:29.164Z,11.40
2018-09-20T04:26:57.229Z,15.23
2018-09-20T04:29:25.261Z,18.33
2018-09-20T04:31:53.319Z,16.00
2018-09-20T04:34:21.385Z,20.50
2018-09-20T04:36:49.430Z,18.53
2018-09-20T04:39:17.532Z,19.03
2018-09-20T04:41:45.804Z,14.50
2018-09-20T04:44:15.625Z,14.43
2018-09-20T04:46:43.681Z,21.30
2018-09-20T04:49:12.116Z,21.27
2018-09-20T04:51:40.566Z,21.23
2018-09-20T04:54:08.656Z,15.27
2018-09-20T04:56:36.991Z,20.03
2018-09-20T04:59:05.581Z,21.07
2018-09-20T05:01:33.670Z,16.33
2018-09-20T05:04:01.698Z,19.27
2018-09-20T05:06:29.754Z,30.87
2018-09-20T05:08:57.948Z,33.40
2018-09-20T05:11:26.267Z,26.80
2018-09-20T05:13:54.280Z,32.43
2018-09-20T05:16:22.445Z,47.60
2018-09-20T05:18:50.944Z,29.33
2018-09-20T05:21:19.142Z,33.80
2018-09-20T05:23:47.197Z,28.07
2018-09-20T05:26:15.290Z,18.70
2018-09-20T05:28:43.349Z,22.87
2018-09-20T05:31:11.401Z,31.83
2018-09-20T05:33:39.466Z,26.63
2018-09-20T05:36:07.541Z,21.27
2018-09-20T05:38:35.614Z,17.47
2018-09-20T05:41:03.656Z,25.37
2018-09-20T05:43:31.885Z,24.43
2018-09-20T05:46:01.909Z,18.97
2018-09-20T05:48:29.936Z,23.07
2018-09-20T05:50:58.019Z,19.60
2018-09-20T05:53:26.037Z,19.83
2018-09-20T05:55:54.080Z,21.47
2018-09-20T05:58:22.119Z,21.33
2018-09-20T06:00:50.160Z,21.43
2018-09-20T06:03:18.234Z,19.60
2018-09-20T06:05:46.365Z,18.93
2018-09-20T06:08:14.354Z,19.23
2018-09-20T06:10:42.545Z,20.57
2018-09-20T06:13:17.375Z,21.40
2018-09-20T06:15:45.465Z,13.20
2018-09-20T06:18:13.550Z,14.10
2018-09-20T06:20:41.604Z,13.20
2018-09-20T06:23:09.656Z,11.87
2018-09-20T06:25:37.725Z,16.83
2018-09-20T06:28:05.783Z,22.10
2018-09-20T06:30:33.836Z,16.80
2018-09-20T06:33:01.851Z,16.67
2018-09-20T06:35:29.905Z,12.67
2018-09-20T06:37:58.358Z,14.90
2018-09-20T06:40:26.419Z,19.97
2018-09-20T06:42:54.460Z,11.33
2018-09-20T06:45:22.535Z,18.33
2018-09-20T06:47:50.556Z,19.47
2018-09-20T06:50:18.694Z,13.13
2018-09-20T06:52:46.738Z,14.00
2018-09-20T06:55:14.822Z,16.70
2018-09-20T06:57:42.880Z,14.73
2018-09-20T07:00:10.932Z,14.73
2018-09-20T07:02:38.981Z,15.23
2018-09-20T07:05:07.057Z,15.87
2018-09-20T07:07:35.145Z,12.83
2018-09-20T07:10:03.286Z,14.17
2018-09-20T07:12:31.480Z,14.17
2018-09-20T07:14:59.516Z,11.93
2018-09-20T07:17:27.728Z,15.43
2018-09-20T07:19:55.901Z,13.03
2018-09-20T07:22:23.980Z,16.60
2018-09-20T07:24:52.105Z,13.57
2018-09-20T07:27:20.223Z,10.23
2018-09-20T07:29:48.245Z,19.63
2018-09-20T07:32:16.276Z,10.80
2018-09-20T07:34:44.382Z,17.07
2018-09-20T07:37:13.426Z,12.90
2018-09-20T07:39:41.457Z,15.47
2018-09-20T07:42:09.640Z,17.70
2018-09-20T07:44:37.821Z,17.63
2018-09-20T07:47:05.921Z,11.13
2018-09-20T07:49:33.951Z,15.83
2018-09-20T07:52:02.073Z,13.50
2018-09-20T07:54:30.103Z,13.67
2018-09-20T07:56:58.171Z,13.80
2018-09-20T07:59:26.231Z,11.97
2018-09-20T08:01:54.345Z,23.13
2018-09-20T08:04:22.316Z,13.43
2018-09-20T08:06:50.351Z,14.30
2018-09-20T08:09:18.388Z,10.57
2018-09-20T08:11:46.461Z,17.77
2018-09-20T08:14:14.688Z,15.70
2018-09-20T08:16:42.753Z,14.90
2018-09-20T08:19:10.792Z,9.23
2018-09-20T08:21:38.919Z,11.07
2018-09-20T08:24:07.084Z,10.23
2018-09-20T08:26:35.129Z,14.20
2018-09-20T08:29:03.274Z,14.03
2018-09-20T08:31:31.437Z,18.27
2018-09-20T08:33:59.475Z,12.90
2018-09-20T08:36:27.627Z,11.03
2018-09-20T08:38:59.012Z,13.50
2018-09-20T08:41:27.142Z,11.60
2018-09-20T08:43:55.229Z,13.50
2018-09-20T08:46:23.249Z,14.37
2018-09-20T08:48:51.276Z,15.80
2018-09-20T08:51:19.327Z,14.80
2018-09-20T08:53:47.380Z,7.83
2018-09-20T08:56:15.421Z,10.23
2018-09-20T08:58:43.839Z,11.37
2018-09-20T09:01:11.897Z,11.43
2018-09-20T09:03:39.942Z,13.53
2018-09-20T09:06:08.021Z,11.63
2018-09-20T09:08:36.037Z,10.07
2018-09-20T09:11:04.139Z,11.00
2018-09-20T09:13:32.269Z,10.93
2018-09-20T09:16:00.334Z,9.83
2018-09-20T09:18:28.395Z,14.03
2018-09-20T09:20:56.482Z,9.43
2018-09-20T09:23:24.502Z,12.13
2018-09-20T09:25:52.563Z,9.10
2018-09-20T09:28:20.610Z,12.57
2018-09-20T09:30:48.665Z,8.50
2018-09-20T09:33:16.729Z,9.67
2018-09-20T09:35:44.847Z,8.03
2018-09-20T09:38:12.885Z,9.33
2018-09-20T09:40:40.996Z,11.23
2018-09-20T09:43:08.995Z,8.20
2018-09-20T09:45:36.981Z,9.33
2018-09-20T09:48:05.111Z,10.60
2018-09-20T09:50:33.129Z,8.63
2018-09-20T09:53:01.202Z,9.30
2018-09-20T09:55:29.232Z,10.87
2018-09-20T09:57:57.294Z,11.03
2018-09-20T10:00:25.329Z,7.73
2018-09-20T10:02:53.376Z,13.67
2018-09-20T10:05:21.439Z,9.07
2018-09-20T10:07:49.512Z,12.20
2018-09-20T10:10:17.637Z,8.87
2018-09-20T10:12:45.755Z,6.27
2018-09-20T10:15:15.181Z,9.60
2018-09-20T10:17:43.217Z,11.60
2018-09-20T10:20:11.280Z,8.23
2018-09-20T10:22:39.335Z,7.57
2018-09-20T10:25:07.485Z,6.97
2018-09-20T10:27:35.493Z,7.90
2018-09-20T10:30:03.881Z,10.40
2018-09-20T10:32:32.251Z,10.20
2018-09-20T10:35:00.330Z,4.83
2018-09-20T10:37:28.362Z,6.57
2018-09-20T10:39:56.443Z,9.93
2018-09-20T10:42:24.484Z,6.20
2018-09-20T10:44:52.627Z,7.63
2018-09-20T10:47:20.730Z,4.53
2018-09-20T10:49:48.727Z,6.40
2018-09-20T10:52:16.755Z,5.17
2018-09-20T10:54:44.793Z,5.87
2018-09-20T10:57:12.930Z,6.27
2018-09-20T10:59:41.081Z,10.30
2018-09-20T11:02:09.198Z,7.83
2018-09-20T11:04:37.241Z,7.73
2018-09-20T11:07:05.497Z,8.30
2018-09-20T11:09:33.517Z,13.70
2018-09-20T11:12:01.844Z,7.43
2018-09-20T11:14:30.023Z,12.67
2018-09-20T11:17:02.830Z,6.83
2018-09-20T11:19:30.912Z,12.63
2018-09-20T11:21:58.941Z,7.67
2018-09-20T11:24:27.002Z,4.73
2018-09-20T11:26:55.034Z,7.47
2018-09-20T11:29:23.123Z,8.53
2018-09-20T11:31:51.179Z,8.03
2018-09-20T11:34:19.233Z,9.03
2018-09-20T11:36:47.361Z,8.33
2018-09-20T11:39:15.405Z,7.03
2018-09-20T11:41:43.469Z,7.43
2018-09-20T11:44:11.503Z,8.80
2018-09-20T11:46:39.624Z,10.50
2018-09-20T11:49:07.621Z,9.57
2018-09-20T11:51:35.697Z,11.83
2018-09-20T11:54:03.873Z,10.07
2018-09-20T11:56:32.015Z,7.03
2018-09-20T11:59:00.058Z,8.63
2018-09-20T12:01:28.140Z,13.87
2018-09-20T12:03:56.318Z,10.67
2018-09-20T12:06:24.353Z,6.67
2018-09-20T12:08:52.432Z,6.03
2018-09-20T12:11:20.449Z,7.57
2018-09-20T12:13:48.501Z,7.17
2018-09-20T12:16:16.548Z,8.33
2018-09-20T12:18:44.848Z,8.97
2018-09-20T12:21:12.947Z,9.67
2018-09-20T12:23:41.561Z,9.40
2018-09-20T12:26:09.913Z,10.90
2018-09-20T12:28:38.066Z,8.33
2018-09-20T12:31:06.222Z,4.33
2018-09-20T12:33:34.253Z,5.90
2018-09-20T12:36:02.605Z,7.63
2018-09-20T12:38:30.682Z,9.03
2018-09-20T12:40:59.750Z,5.50
2018-09-20T12:43:28.186Z,8.03
2018-09-20T12:45:56.258Z,12.13
2018-09-20T12:48:24.376Z,15.53
2018-09-20T12:50:52.449Z,11.60
2018-09-20T12:53:20.527Z,7.80
2018-09-20T12:55:49.072Z,5.40
2018-09-20T12:58:17.145Z,9.37
2018-09-20T13:00:45.234Z,7.27
2018-09-20T13:03:13.218Z,6.33
2018-09-20T13:05:41.276Z,6.80
2018-09-20T13:08:09.309Z,7.73
2018-09-20T13:10:37.396Z,7.97
2018-09-20T13:13:05.600Z,7.63
2018-09-20T13:15:34.760Z,5.43
2018-09-20T13:18:03.003Z,3.63
2018-09-20T13:20:31.156Z,6.33
2018-09-20T13:22:59.161Z,5.27
2018-09-20T13:25:27.275Z,7.23
2018-09-20T13:27:55.338Z,7.13
2018-09-20T13:30:23.431Z,9.20
2018-09-20T13:32:51.576Z,6.17
2018-09-20T13:35:19.611Z,5.67
2018-09-20T13:37:47.837Z,7.40
2018-09-20T13:40:15.990Z,6.80
2018-09-20T13:42:44.169Z,7.30
2018-09-20T13:45:12.311Z,4.63
2018-09-20T13:47:40.363Z,8.77
2018-09-20T13:50:08.469Z,6.87
2018-09-20T13:52:36.740Z,7.60
2018-09-20T13:55:05.263Z,6.20
2018-09-20T13:57:33.476Z,8.27
2018-09-20T14:00:01.910Z,5.13
2018-09-20T14:02:30.035Z,6.67
2018-09-20T14:04:58.154Z,6.23
2018-09-20T14:07:26.327Z,7.37
2018-09-20T14:09:54.366Z,6.90
2018-09-20T14:12:22.438Z,6.27
2018-09-20T14:14:50.507Z,10.97
2018-09-20T14:17:18.545Z,8.70
2018-09-20T14:19:46.616Z,6.00
2018-09-20T14:22:14.675Z,8.47
2018-09-20T14:24:42.721Z,13.63
2018-09-20T14:27:10.907Z,10.53
2018-09-20T14:29:38.986Z,7.50
2018-09-20T14:32:07.069Z,7.57
2018-09-20T14:34:35.186Z,6.57
2018-09-20T14:37:03.270Z,6.67
2018-09-20T14:39:31.365Z,5.30
2018-09-20T14:41:59.396Z,7.03
2018-09-20T14:44:27.420Z,6.83
2018-09-20T14:46:55.536Z,6.00
2018-09-20T14:49:23.581Z,5.60
2018-09-20T14:51:51.649Z,5.13
2018-09-20T14:54:19.730Z,8.50
2018-09-20T14:56:47.794Z,9.00
2018-09-20T14:59:15.906Z,6.30
2018-09-20T15:01:43.951Z,7.53
2018-09-20T15:04:12.031Z,6.20
2018-09-20T15:06:40.077Z,5.80
2018-09-20T15:09:08.782Z,10.37
2018-09-20T15:11:37.426Z,8.67
2018-09-20T15:14:05.656Z,6.33
2018-09-20T15:16:33.730Z,7.03
2018-09-20T15:19:01.790Z,6.43
2018-09-20T15:21:29.850Z,4.63
2018-09-20T15:23:58.090Z,15.40
2018-09-20T15:26:26.209Z,6.57
2018-09-20T15:28:54.371Z,6.20
2018-09-20T15:31:22.901Z,3.77
2018-09-20T15:33:50.962Z,6.83
2018-09-20T15:36:19.069Z,7.23
2018-09-20T15:38:47.121Z,8.17
2018-09-20T15:41:15.224Z,11.23
2018-09-20T15:43:43.309Z,4.97
2018-09-20T15:46:11.410Z,11.77
2018-09-20T15:48:39.570Z,7.67
2018-09-20T15:51:08.017Z,5.23
2018-09-20T15:53:36.077Z,7.23
2018-09-20T15:56:04.421Z,4.60
2018-09-20T15:58:32.651Z,7.73
2018-09-20T16:01:00.695Z,4.47
2018-09-20T16:03:28.733Z,6.23
2018-09-20T16:05:56.792Z,8.23
2018-09-20T16:08:24.897Z,5.63
2018-09-20T16:10:52.993Z,4.83
2018-09-20T16:13:21.023Z,13.77
2018-09-20T16:15:49.182Z,7.97
2018-09-20T16:18:17.225Z,6.97
2018-09-20T16:20:45.335Z,6.03
2018-09-20T16:23:13.498Z,6.57
2018-09-20T16:25:41.601Z,6.40
2018-09-20T16:28:38.196Z,5.43
2018-09-20T16:31:51.652Z,6.90
2018-09-20T16:34:37.423Z,4.67
2018-09-20T16:37:33.398Z,5.70
2018-09-20T16:40:04.818Z,9.00
2018-09-20T16:42:34.738Z,10.57
2018-09-20T16:45:02.903Z,6.07
2018-09-20T16:47:30.966Z,8.00
2018-09-20T16:49:59.672Z,7.27
2018-09-20T16:52:30.470Z,9.57
2018-09-20T16:54:58.680Z,5.77
2018-09-20T16:57:26.843Z,5.83
2018-09-20T17:02:38.770Z,8.17
2018-09-20T17:05:06.976Z,4.67
2018-09-20T17:07:35.287Z,9.30
2018-09-20T17:10:03.473Z,6.00
2018-09-20T17:12:32.166Z,7.93
2018-09-20T17:15:07.204Z,5.90
2018-09-20T17:17:35.130Z,10.87
2018-09-20T17:20:03.293Z,10.40
2018-09-20T17:22:35.547Z,10.53
2018-09-20T17:25:03.801Z,11.60
2018-09-20T17:27:32.029Z,5.73
2018-09-20T17:30:01.067Z,7.40
2018-09-20T17:32:30.311Z,6.20
2018-09-20T17:34:59.255Z,6.77
2018-09-20T17:37:29.436Z,7.23
2018-09-20T17:39:58.805Z,8.00
2018-09-20T17:42:27.758Z,8.90
2018-09-20T17:44:55.943Z,8.37
2018-09-20T17:47:24.219Z,9.57
2018-09-20T17:49:52.275Z,17.07
2018-09-20T17:52:20.836Z,11.40
2018-09-20T17:54:49.889Z,13.27
2018-09-20T17:57:19.179Z,13.50
2018-09-20T17:59:47.421Z,10.90
2018-09-20T18:02:15.461Z,12.20
2018-09-20T18:04:43.548Z,10.13
2018-09-20T18:07:11.670Z,10.23
2018-09-20T18:09:39.749Z,12.50
2018-09-20T18:12:07.818Z,9.67
2018-09-20T18:14:35.831Z,8.47
2018-09-20T18:17:03.990Z,7.60
2018-09-20T18:19:32.230Z,10.77
2018-09-20T18:22:00.334Z,10.23
2018-09-20T18:24:28.495Z,9.97
2018-09-20T18:26:57.027Z,7.87
2018-09-20T18:29:25.172Z,12.67
2018-09-20T18:31:53.405Z,11.30
2018-09-20T18:34:21.600Z,12.30
2018-09-20T18:36:49.719Z,5.87
2018-09-20T18:39:17.934Z,9.33
2018-09-20T18:41:46.065Z,9.10
2018-09-20T18:44:14.318Z,11.03
2018-09-20T18:46:48.386Z,9.90
2018-09-20T18:49:16.757Z,17.37
2018-09-20T18:51:45.441Z,13.00
2018-09-20T18:54:14.009Z,9.40
2018-09-20T18:56:43.493Z,5.57
2018-09-20T18:59:11.595Z,11.07
2018-09-20T19:01:39.708Z,11.80
2018-09-20T19:04:07.887Z,9.17
2018-09-20T19:06:35.973Z,12.20
2018-09-20T19:09:06.782Z,14.50
2018-09-20T19:11:34.993Z,10.40
2018-09-20T19:14:03.122Z,11.83
2018-09-20T19:16:31.229Z,10.77
2018-09-20T19:18:59.313Z,12.73
2018-09-20T19:21:27.380Z,10.23
2018-09-20T19:23:55.410Z,14.77
2018-09-20T19:26:23.446Z,12.83
2018-09-20T19:28:51.735Z,10.57
2018-09-20T19:31:19.805Z,10.57
2018-09-20T19:33:47.862Z,7.57
2018-09-20T19:36:15.955Z,5.93
2018-09-20T19:38:44.196Z,12.27
2018-09-20T19:41:12.211Z,7.40
2018-09-20T19:43:40.280Z,13.83
2018-09-20T19:46:08.357Z,10.97
2018-09-20T19:48:36.533Z,8.53
2018-09-20T19:51:04.594Z,16.53
2018-09-20T19:53:32.721Z,10.97
2018-09-20T19:56:00.911Z,10.43
2018-09-20T19:58:28.996Z,9.47
2018-09-20T20:00:57.088Z,15.93
2018-09-20T20:03:25.146Z,9.20
2018-09-20T20:05:53.285Z,9.17
2018-09-20T20:08:21.405Z,8.80
2018-09-20T20:10:49.505Z,7.40
2018-09-20T20:13:17.559Z,7.27
2018-09-20T20:15:45.758Z,5.47
2018-09-20T20:18:13.898Z,9.27
2018-09-20T20:20:41.942Z,8.27
2018-09-20T20:23:09.998Z,8.03
2018-09-20T20:25:38.046Z,4.27
2018-09-20T20:28:06.131Z,7.37
2018-09-20T20:30:34.227Z,8.70
2018-09-20T20:33:02.329Z,5.50
2018-09-20T20:38:12.176Z,5.40
2018-09-20T20:40:40.326Z,9.80
2018-09-20T20:43:08.395Z,6.97
2018-09-20T20:45:36.565Z,5.33
2018-09-20T20:48:04.807Z,5.97
2018-09-20T20:50:32.931Z,6.63
2018-09-20T20:53:01.041Z,7.17
2018-09-20T20:55:29.017Z,11.20
2018-09-20T20:57:57.077Z,10.80
2018-09-20T21:00:25.245Z,9.60
2018-09-20T21:02:53.334Z,8.67
2018-09-20T21:05:21.345Z,6.90
2018-09-20T21:07:49.464Z,9.30
2018-09-20T21:10:17.641Z,7.70
2018-09-20T21:12:45.730Z,5.57
2018-09-20T21:15:13.833Z,5.43
2018-09-20T21:17:41.923Z,10.57
2018-09-20T21:20:10.106Z,9.60
2018-09-20T21:22:38.160Z,7.40
2018-09-20T21:25:06.326Z,9.80
2018-09-20T21:27:34.376Z,7.60
2018-09-20T21:30:02.430Z,6.67
2018-09-20T21:32:30.570Z,12.97
2018-09-20T21:34:58.797Z,6.40
2018-09-20T21:37:26.984Z,6.53
2018-09-20T21:39:55.056Z,10.27
2018-09-20T21:42:23.209Z,6.77
2018-09-20T21:44:51.318Z,6.13
2018-09-20T21:47:19.380Z,5.87
2018-09-20T21:49:47.423Z,11.73
2018-09-20T21:52:15.520Z,7.53
2018-09-20T21:54:43.797Z,7.30
2018-09-20T21:57:14.055Z,10.70
2018-09-20T21:59:42.082Z,7.97
2018-09-20T22:02:10.488Z,8.83
2018-09-20T22:04:38.549Z,8.60
2018-09-20T22:07:06.590Z,7.73
2018-09-20T22:09:34.797Z,7.43
2018-09-20T22:12:02.872Z,5.43
2018-09-20T22:14:30.983Z,8.17
2018-09-20T22:16:59.412Z,5.93
2018-09-20T22:19:27.449Z,8.37
2018-09-20T22:21:55.821Z,8.83
2018-09-20T22:24:24.053Z,8.43
2018-09-20T22:26:52.091Z,8.10
2018-09-20T22:29:20.170Z,4.83
2018-09-20T22:31:48.457Z,6.07
2018-09-20T22:34:16.586Z,7.27
2018-09-20T22:36:44.648Z,7.33
2018-09-20T22:39:12.777Z,8.57
2018-09-20T22:41:41.943Z,7.87
2018-09-20T22:44:09.995Z,8.33
2018-09-20T22:46:38.476Z,8.53
2018-09-20T22:49:06.718Z,8.17
2018-09-20T22:51:34.770Z,7.13
2018-09-20T22:54:02.860Z,9.50
2018-09-20T22:56:30.936Z,7.20
2018-09-20T22:58:59.004Z,6.03
2018-09-20T23:01:27.033Z,9.30
2018-09-20T23:03:55.111Z,7.87
2018-09-20T23:06:23.148Z,5.07
2018-09-20T23:08:51.193Z,7.43
2018-09-20T23:11:19.213Z,6.63
2018-09-20T23:13:47.352Z,8.00
2018-09-20T23:16:15.390Z,8.20
2018-09-20T23:18:43.448Z,9.07
2018-09-20T23:21:11.486Z,7.57
2018-09-20T23:23:39.635Z,5.07
2018-09-20T23:26:07.724Z,11.43
2018-09-20T23:28:35.941Z,6.63
2018-09-20T23:31:04.022Z,6.83
2018-09-20T23:33:32.209Z,6.63
2018-09-20T23:36:00.233Z,7.37
2018-09-20T23:38:28.342Z,6.87
2018-09-20T23:40:56.365Z,6.10
2018-09-20T23:43:24.402Z,8.90
2018-09-20T23:45:52.600Z,7.80
2018-09-20T23:48:20.640Z,6.63
2018-09-20T23:50:48.744Z,7.83
2018-09-20T23:53:16.812Z,7.03
2018-09-20T23:55:44.883Z,5.80
2018-09-20T23:58:12.928Z,6.17
